Welcome to Northern Hawkes Bay. New Zealand.
PWS Header
      nz Flag



Hit Counter


W3C Valid W3C Valid logo


    Wairoa

Select any of the Stations below to visit their websites.










Historic Data from Weather Underground
Select the location of interest below. Wairoa is the default. Please have patience, this Data is slow to load in.
Northern Hawkes Bay Historical Data
Daily Summary for July 8, 2017 Units:  Metric    English   Both
« Previous Day
Next Day »
Daily Weekly Monthly Yearly Custom
  High: Low: Average:
Temperature: 17.0 °C 4.6 °C 9.6 °C
Dew Point: 8.9 °C 4.4 °C 6.9 °C
Humidity: 99% 48% 85%
Wind Speed: 9.7km/h 0.0km/h 3.5km/h
Wind Gust: 17.2km/h - -
Wind- - SW
Pressure: 1011.4 hPa 1007.0 hPa -
Precipitation: 0.0 mm    
Historical Graphs
 
 
Tabular Data for July 8, 2017
Time Temperature Dew Point Pressure Wind Wind Speed Wind Gust Humidity Rainfall Rate (Hourly) solar
00:01 9.5 °C 7.6 °C 1009.4 hPa North 2.6 km/h 6.1 km/h 88% 0.0 mm 0 W/m2
00:06 9.5 °C 7.6 °C 1009.4 hPa Calm   6.1 km/h 88% 0.0 mm 0 W/m2
00:11 9.4 °C 7.5 °C 1009.4 hPa NE 2.6 km/h 3.5 km/h 88% 0.0 mm 0 W/m2
00:16 9.4 °C 7.7 °C 1009.4 hPa NNE 3.5 km/h 5.0 km/h 89% 0.0 mm 0 W/m2
00:21 9.3 °C 7.6 °C 1009.4 hPa NNE 5.0 km/h 6.1 km/h 89% 0.0 mm 0 W/m2
00:26 9.3 °C 7.7 °C 1009.4 hPa NE 1.1 km/h 6.1 km/h 90% 0.0 mm 0 W/m2
00:31 9.2 °C 7.7 °C 1009.4 hPa NE 1.1 km/h 6.1 km/h 90% 0.0 mm 0 W/m2
00:36 9.1 °C 7.6 °C 1009.4 hPa NE 5.0 km/h 6.1 km/h 90% 0.0 mm 0 W/m2
00:41 9.2 °C 7.8 °C 1009.4 hPa NE 3.5 km/h 6.1 km/h 91% 0.0 mm 0 W/m2
00:46 9.1 °C 7.7 °C 1009.4 hPa NE 1.1 km/h 7.2 km/h 91% 0.0 mm 0 W/m2
00:51 9.1 °C 7.7 °C 1009.4 hPa NNE 2.6 km/h 7.2 km/h 91% 0.0 mm 0 W/m2
00:56 9.1 °C 7.7 °C 1009.4 hPa North 3.5 km/h 5.0 km/h 91% 0.0 mm 0 W/m2
01:01 9.1 °C 7.7 °C 1009.4 hPa NNE 2.6 km/h 6.1 km/h 91% 0.0 mm 0 W/m2
01:06 9.0 °C 7.6 °C 1009.4 hPa NNE 1.1 km/h 6.1 km/h 91% 0.0 mm 0 W/m2
01:11 8.9 °C 7.7 °C 1009.4 hPa NE 1.1 km/h 5.0 km/h 92% 0.0 mm 0 W/m2
01:16 8.9 °C 7.8 °C 1009.4 hPa NNE 2.6 km/h 5.0 km/h 93% 0.0 mm 0 W/m2
01:21 8.8 °C 7.7 °C 1009.4 hPa North 3.5 km/h 7.2 km/h 93% 0.0 mm 0 W/m2
01:26 8.8 °C 7.7 °C 1009.4 hPa North 6.1 km/h 7.2 km/h 93% 0.0 mm 0 W/m2
01:31 8.7 °C 7.6 °C 1009.4 hPa North 2.6 km/h 7.2 km/h 93% 0.0 mm 0 W/m2
01:36 8.7 °C 7.6 °C 1009.4 hPa North 3.5 km/h 7.2 km/h 93% 0.0 mm 0 W/m2
01:41 8.7 °C 7.6 °C 1009.7 hPa North 1.1 km/h 6.1 km/h 93% 0.0 mm 0 W/m2
01:46 8.5 °C 7.4 °C 1009.7 hPa NNE 2.6 km/h 5.0 km/h 93% 0.0 mm 0 W/m2
01:51 8.5 °C 7.4 °C 1009.7 hPa North 2.6 km/h 5.0 km/h 93% 0.0 mm 0 W/m2
01:56 8.5 °C 7.4 °C 1009.7 hPa North 3.5 km/h 5.0 km/h 93% 0.0 mm 0 W/m2
02:02 8.5 °C 7.4 °C 1009.7 hPa North 2.6 km/h 5.0 km/h 93% 0.0 mm 0 W/m2
02:07 8.5 °C 7.4 °C 1009.4 hPa Calm   5.0 km/h 93% 0.0 mm 0 W/m2
02:12 8.4 °C 7.3 °C 1009.4 hPa North 1.1 km/h 3.5 km/h 93% 0.0 mm 0 W/m2
02:17 8.3 °C 7.2 °C 1009.7 hPa North 1.1 km/h 3.5 km/h 93% 0.0 mm 0 W/m2
02:22 8.3 °C 7.4 °C 1009.7 hPa NNW 1.1 km/h 5.0 km/h 94% 0.0 mm 0 W/m2
02:27 8.2 °C 7.3 °C 1009.4 hPa NW 1.1 km/h 5.0 km/h 94% 0.0 mm 0 W/m2
02:32 8.0 °C 7.1 °C 1009.7 hPa NNW 2.6 km/h 3.5 km/h 94% 0.0 mm 0 W/m2
02:37 7.9 °C 7.0 °C 1009.7 hPa North 1.1 km/h 3.5 km/h 94% 0.0 mm 0 W/m2
02:42 7.8 °C 6.9 °C 1009.4 hPa North 2.6 km/h 3.5 km/h 94% 0.0 mm 0 W/m2
02:47 7.8 °C 6.9 °C 1009.7 hPa North 1.1 km/h 3.5 km/h 94% 0.0 mm 0 W/m2
02:52 7.8 °C 7.1 °C 1009.4 hPa North 2.6 km/h 3.5 km/h 95% 0.0 mm 0 W/m2
02:57 7.7 °C 6.9 °C 1009.7 hPa NNW 2.6 km/h 3.5 km/h 95% 0.0 mm 0 W/m2
03:02 7.6 °C 6.8 °C 1009.7 hPa NW 2.6 km/h 3.5 km/h 95% 0.0 mm 0 W/m2
03:07 7.6 °C 6.8 °C 1009.7 hPa NW 2.6 km/h 5.0 km/h 95% 0.0 mm 0 W/m2
03:12 7.5 °C 6.8 °C 1009.7 hPa NW 2.6 km/h 5.0 km/h 95% 0.0 mm 0 W/m2
03:18 7.3 °C 6.6 °C 1009.7 hPa NW 1.1 km/h 5.0 km/h 95% 0.0 mm 0 W/m2
03:23 7.3 °C 6.7 °C 1009.4 hPa NNW 2.6 km/h 3.5 km/h 96% 0.0 mm 0 W/m2
03:28 7.3 °C 6.7 °C 1009.4 hPa NNW 1.1 km/h 3.5 km/h 96% 0.0 mm 0 W/m2
03:33 7.2 °C 6.6 °C 1009.7 hPa NNW 2.6 km/h 3.5 km/h 96% 0.0 mm 0 W/m2
03:38 7.1 °C 6.5 °C 1009.4 hPa North 2.6 km/h 3.5 km/h 96% 0.0 mm 0 W/m2
03:43 6.9 °C 6.4 °C 1009.4 hPa North 1.1 km/h 3.5 km/h 97% 0.0 mm 0 W/m2
03:48 6.7 °C 6.3 °C 1009.7 hPa Calm   3.5 km/h 97% 0.0 mm 0 W/m2
03:53 6.6 °C 6.2 °C 1009.7 hPa NW 2.6 km/h 3.5 km/h 97% 0.0 mm 0 W/m2
03:58 6.6 °C 6.2 °C 1009.7 hPa WNW 1.1 km/h 3.5 km/h 97% 0.0 mm 0 W/m2
04:03 6.5 °C 6.1 °C 1009.4 hPa NW 2.6 km/h 3.5 km/h 97% 0.0 mm 0 W/m2
04:08 6.3 °C 5.8 °C 1009.4 hPa NW 3.5 km/h 6.1 km/h 97% 0.0 mm 0 W/m2
04:13 6.4 °C 5.9 °C 1009.7 hPa NW 3.5 km/h 7.2 km/h 97% 0.0 mm 0 W/m2
04:18 6.3 °C 6.0 °C 1009.7 hPa NW 3.5 km/h 7.2 km/h 98% 0.0 mm 0 W/m2
04:23 6.3 °C 6.0 °C 1009.4 hPa NW 3.5 km/h 7.2 km/h 98% 0.0 mm 0 W/m2
04:28 6.3 °C 6.0 °C 1009.7 hPa NNW 3.5 km/h 6.1 km/h 98% 0.0 mm 0 W/m2
04:33 6.3 °C 6.0 °C 1009.7 hPa NNW 2.6 km/h 6.1 km/h 98% 0.0 mm 0 W/m2
04:39 6.2 °C 5.9 °C 1009.7 hPa NW 3.5 km/h 6.1 km/h 98% 0.0 mm 0 W/m2
04:44 6.1 °C 5.8 °C 1009.7 hPa NNW 3.5 km/h 5.0 km/h 98% 0.0 mm 0 W/m2
04:49 6.0 °C 5.7 °C 1009.7 hPa NNW 3.5 km/h 5.0 km/h 98% 0.0 mm 0 W/m2
04:54 6.0 °C 5.7 °C 1009.7 hPa NW 2.6 km/h 6.1 km/h 98% 0.0 mm 0 W/m2
04:59 6.0 °C 5.7 °C 1010.0 hPa NW 3.5 km/h 6.1 km/h 98% 0.0 mm 0 W/m2
05:04 6.0 °C 5.7 °C 1009.7 hPa NW 3.5 km/h 6.1 km/h 98% 0.0 mm 0 W/m2
05:09 6.1 °C 5.8 °C 1010.0 hPa NW 5.0 km/h 7.2 km/h 98% 0.0 mm 0 W/m2
05:14 6.2 °C 5.9 °C 1010.0 hPa NW 5.0 km/h 8.7 km/h 98% 0.0 mm 0 W/m2
05:19 6.1 °C 5.8 °C 1010.0 hPa NW 5.0 km/h 8.7 km/h 98% 0.0 mm 0 W/m2
05:25 6.1 °C 5.8 °C 1010.0 hPa NW 5.0 km/h 7.2 km/h 98% 0.0 mm 0 W/m2
05:30 6.1 °C 5.8 °C 1010.0 hPa NW 5.0 km/h 7.2 km/h 98% 0.0 mm 0 W/m2
05:35 6.0 °C 5.7 °C 1010.0 hPa NW 3.5 km/h 7.2 km/h 98% 0.0 mm 0 W/m2
05:40 6.0 °C 5.7 °C 1010.0 hPa NW 5.0 km/h 7.2 km/h 98% 0.0 mm 0 W/m2
05:45 5.9 °C 5.8 °C 1010.0 hPa NW 3.5 km/h 8.7 km/h 99% 0.0 mm 0 W/m2
05:50 5.9 °C 5.8 °C 1010.0 hPa NW 3.5 km/h 8.7 km/h 99% 0.0 mm 0 W/m2
05:55 5.8 °C 5.7 °C 1010.0 hPa NW 5.0 km/h 7.2 km/h 99% 0.0 mm 0 W/m2
06:00 5.8 °C 5.7 °C 1010.0 hPa NW 5.0 km/h 7.2 km/h 99% 0.0 mm 0 W/m2
06:05 5.7 °C 5.6 °C 1010.0 hPa NNW 3.5 km/h 7.2 km/h 99% 0.0 mm 0 W/m2
06:10 5.6 °C 5.4 °C 1010.0 hPa NNW 3.5 km/h 7.2 km/h 99% 0.0 mm 0 W/m2
06:15 5.6 °C 5.4 °C 1010.0 hPa NW 3.5 km/h 7.2 km/h 99% 0.0 mm 0 W/m2
06:20 5.5 °C 5.3 °C 1010.0 hPa NW 5.0 km/h 7.2 km/h 99% 0.0 mm 0 W/m2
06:25 5.5 °C 5.3 °C 1010.0 hPa NW 5.0 km/h 7.2 km/h 99% 0.0 mm 0 W/m2
06:30 5.4 °C 5.3 °C 1010.0 hPa NW 6.1 km/h 8.7 km/h 99% 0.0 mm 0 W/m2
06:35 5.4 °C 5.3 °C 1010.0 hPa NNW 3.5 km/h 8.7 km/h 99% 0.0 mm 0 W/m2
06:40 5.3 °C 5.2 °C 1010.4 hPa NW 5.0 km/h 8.7 km/h 99% 0.0 mm 0 W/m2
06:45 5.3 °C 5.2 °C 1010.4 hPa NW 5.0 km/h 8.7 km/h 99% 0.0 mm 0 W/m2
06:50 5.2 °C 5.1 °C 1010.4 hPa NW 5.0 km/h 8.7 km/h 99% 0.0 mm 0 W/m2
06:55 5.2 °C 5.1 °C 1010.4 hPa NW 5.0 km/h 8.7 km/h 99% 0.0 mm 0 W/m2
07:00 5.1 °C 4.9 °C 1010.4 hPa NW 5.0 km/h 8.7 km/h 99% 0.0 mm 0 W/m2
07:02 5.1 °C 4.9 °C 1010.4 hPa NW 6.1 km/h 8.7 km/h 99% 0.0 mm 0 W/m2
07:07 5.0 °C 4.8 °C 1010.4 hPa NW 5.0 km/h 8.7 km/h 99% 0.0 mm 0 W/m2
07:12 5.0 °C 4.8 °C 1010.4 hPa NW 5.0 km/h 8.7 km/h 99% 0.0 mm 0 W/m2
07:17 4.9 °C 4.8 °C 1010.7 hPa NW 5.0 km/h 7.2 km/h 99% 0.0 mm 0 W/m2
07:22 4.8 °C 4.7 °C 1010.4 hPa NW 3.5 km/h 7.2 km/h 99% 0.0 mm 0 W/m2
07:27 4.7 °C 4.6 °C 1010.7 hPa NW 5.0 km/h 7.2 km/h 99% 0.0 mm 0 W/m2
07:32 4.6 °C 4.4 °C 1010.7 hPa NW 5.0 km/h 8.7 km/h 99% 0.0 mm 0 W/m2
07:37 4.7 °C 4.6 °C 1010.4 hPa NW 6.1 km/h 8.7 km/h 99% 0.0 mm 2 W/m2
07:42 4.7 °C 4.6 °C 1010.7 hPa NW 6.1 km/h 8.7 km/h 99% 0.0 mm 5 W/m2
07:47 4.8 °C 4.7 °C 1010.7 hPa NW 6.1 km/h 9.7 km/h 99% 0.0 mm 20 W/m2
07:52 4.9 °C 4.8 °C 1010.7 hPa NW 5.0 km/h 9.7 km/h 99% 0.0 mm 33 W/m2
07:57 5.0 °C 4.8 °C 1010.7 hPa NW 5.0 km/h 9.7 km/h 99% 0.0 mm 43 W/m2
08:02 5.0 °C 4.8 °C 1010.7 hPa NW 5.0 km/h 8.7 km/h 99% 0.0 mm 55 W/m2
08:07 5.1 °C 4.9 °C 1010.7 hPa NW 7.2 km/h 8.7 km/h 99% 0.0 mm 64 W/m2
08:12 5.1 °C 4.9 °C 1010.7 hPa NW 6.1 km/h 8.7 km/h 99% 0.0 mm 75 W/m2
08:17 5.2 °C 5.1 °C 1010.7 hPa NNW 3.5 km/h 8.7 km/h 99% 0.0 mm 89 W/m2
08:22 5.3 °C 5.2 °C 1010.7 hPa NNW 3.5 km/h 8.7 km/h 99% 0.0 mm 100 W/m2
08:27 5.5 °C 5.3 °C 1010.7 hPa NNW 6.1 km/h 7.2 km/h 99% 0.0 mm 113 W/m2
08:32 5.8 °C 5.7 °C 1010.7 hPa NNW 5.0 km/h 9.7 km/h 99% 0.0 mm 122 W/m2
08:37 5.9 °C 5.8 °C 1010.7 hPa NNW 6.1 km/h 9.7 km/h 99% 0.0 mm 135 W/m2
08:42 6.2 °C 5.9 °C 1010.7 hPa NNW 7.2 km/h 9.7 km/h 98% 0.0 mm 145 W/m2
08:47 6.5 °C 6.2 °C 1010.7 hPa NNW 7.2 km/h 11.1 km/h 98% 0.0 mm 154 W/m2
08:52 6.7 °C 6.4 °C 1010.7 hPa NNW 8.7 km/h 11.1 km/h 98% 0.0 mm 162 W/m2
09:09 7.1 °C 6.7 °C 1011.1 hPa NNW 9.7 km/h 17.2 km/h 97% 0.0 mm 185 W/m2
09:14 7.3 °C 6.8 °C 1011.1 hPa NNW 8.7 km/h 13.4 km/h 97% 0.0 mm 193 W/m2
09:19 7.5 °C 6.9 °C 1011.1 hPa NNW 3.5 km/h 13.4 km/h 96% 0.0 mm 196 W/m2
09:24 7.8 °C 7.1 °C 1011.1 hPa NNW 8.7 km/h 12.2 km/h 95% 0.0 mm 201 W/m2
09:29 8.0 °C 7.1 °C 1011.1 hPa NNW 7.2 km/h 12.2 km/h 94% 0.0 mm 208 W/m2
09:34 7.9 °C 6.8 °C 1011.1 hPa NNW 5.0 km/h 13.4 km/h 93% 0.0 mm 209 W/m2
09:39 8.3 °C 7.1 °C 1011.4 hPa NW 5.0 km/h 13.4 km/h 92% 0.0 mm 205 W/m2
09:44 8.6 °C 7.2 °C 1011.1 hPa NNW 5.0 km/h 11.1 km/h 91% 0.0 mm 122 W/m2
09:49 8.9 °C 7.2 °C 1011.4 hPa NNW 7.2 km/h 13.4 km/h 89% 0.0 mm 84 W/m2
09:54 8.9 °C 7.0 °C 1011.1 hPa NNW 7.2 km/h 13.4 km/h 88% 0.0 mm 83 W/m2
09:59 9.1 °C 7.1 °C 1011.1 hPa NNW 5.0 km/h 13.4 km/h 87% 0.0 mm 70 W/m2
10:04 9.4 °C 7.3 °C 1011.1 hPa NNW 7.2 km/h 12.2 km/h 87% 0.0 mm 68 W/m2
10:09 9.6 °C 7.4 °C 1011.4 hPa NNW 7.2 km/h 11.1 km/h 86% 0.0 mm 66 W/m2
10:14 9.7 °C 7.3 °C 1011.4 hPa NNW 8.7 km/h 11.1 km/h 85% 0.0 mm 64 W/m2
10:19 9.8 °C 7.4 °C 1011.1 hPa NNW 9.7 km/h 12.2 km/h 85% 0.0 mm 63 W/m2
10:24 9.9 °C 7.5 °C 1011.4 hPa NNW 8.7 km/h 13.4 km/h 85% 0.0 mm 61 W/m2
10:29 10.1 °C 7.5 °C 1011.1 hPa NNW 6.1 km/h 13.4 km/h 84% 0.0 mm 60 W/m2
10:34 10.4 °C 7.8 °C 1011.1 hPa NNW 6.1 km/h 12.2 km/h 84% 0.0 mm 57 W/m2
10:39 10.7 °C 7.9 °C 1011.1 hPa NNW 6.1 km/h 11.1 km/h 83% 0.0 mm 54 W/m2
10:44 10.8 °C 8.1 °C 1011.1 hPa North 6.1 km/h 9.7 km/h 83% 0.0 mm 53 W/m2
10:50 11.2 °C 8.2 °C 1011.1 hPa NNW 3.5 km/h 8.7 km/h 82% 0.0 mm 52 W/m2
10:55 11.5 °C 8.3 °C 1011.4 hPa NNW 5.0 km/h 8.7 km/h 81% 0.0 mm 52 W/m2
11:00 11.7 °C 8.4 °C 1011.1 hPa North 5.0 km/h 8.7 km/h 80% 0.0 mm 52 W/m2
11:05 11.7 °C 8.2 °C 1011.1 hPa North 3.5 km/h 8.7 km/h 79% 0.0 mm 52 W/m2
11:10 11.9 °C 8.4 °C 1011.4 hPa North 2.6 km/h 8.7 km/h 79% 0.0 mm 54 W/m2
11:15 12.7 °C 8.6 °C 1011.1 hPa NNE 7.2 km/h 9.7 km/h 76% 0.0 mm 52 W/m2
11:20 12.7 °C 8.0 °C 1011.4 hPa North 1.1 km/h 9.7 km/h 73% 0.0 mm 51 W/m2
11:25 13.2 °C 7.8 °C 1011.1 hPa NNE 6.1 km/h 9.7 km/h 70% 0.0 mm 51 W/m2
11:30 13.3 °C 7.7 °C 1011.1 hPa NE 8.7 km/h 11.1 km/h 69% 0.0 mm 51 W/m2
11:35 13.4 °C 7.8 °C 1011.1 hPa NNE 6.1 km/h 11.1 km/h 69% 0.0 mm 51 W/m2
11:40 13.4 °C 7.6 °C 1011.1 hPa NNE 2.6 km/h 11.1 km/h 68% 0.0 mm 51 W/m2
11:46 14.0 °C 7.8 °C 1010.7 hPa NE 6.1 km/h 11.1 km/h 66% 0.0 mm 51 W/m2
11:51 13.9 °C 7.7 °C 1010.7 hPa NNE 7.2 km/h 14.8 km/h 66% 0.0 mm 51 W/m2
11:56 14.0 °C 7.8 °C 1010.7 hPa NNE 5.0 km/h 14.8 km/h 66% 0.0 mm 51 W/m2
12:01 14.2 °C 7.7 °C 1010.7 hPa North 7.2 km/h 13.4 km/h 65% 0.0 mm 51 W/m2
12:06 14.1 °C 7.6 °C 1010.4 hPa North 8.7 km/h 13.4 km/h 65% 0.0 mm 51 W/m2
12:11 14.2 °C 7.7 °C 1010.7 hPa NNE 5.0 km/h 12.2 km/h 65% 0.0 mm 52 W/m2
12:16 14.9 °C 8.4 °C 1010.4 hPa NNE 6.1 km/h 11.1 km/h 65% 0.0 mm 52 W/m2
12:21 14.9 °C 7.9 °C 1010.4 hPa North 5.0 km/h 11.1 km/h 63% 0.0 mm 53 W/m2
12:26 15.1 °C 8.1 °C 1010.4 hPa North 8.7 km/h 12.2 km/h 63% 0.0 mm 54 W/m2
12:31 15.1 °C 7.4 °C 1010.0 hPa NNE 3.5 km/h 12.2 km/h 60% 0.0 mm 55 W/m2
12:36 15.6 °C 7.6 °C 1010.0 hPa NNE 6.1 km/h 12.2 km/h 59% 0.0 mm 56 W/m2
12:41 14.9 °C 6.4 °C 1010.0 hPa NE 3.5 km/h 14.8 km/h 57% 0.0 mm 61 W/m2
12:46 15.4 °C 6.7 °C 1010.0 hPa NE 9.7 km/h 14.8 km/h 56% 0.0 mm 60 W/m2
12:51 15.0 °C 5.8 °C 1010.0 hPa North 5.0 km/h 13.4 km/h 54% 0.0 mm 58 W/m2
12:56 15.2 °C 5.9 °C 1010.0 hPa North 5.0 km/h 13.4 km/h 54% 0.0 mm 56 W/m2
13:06 15.6 °C 5.8 °C 1009.7 hPa North 3.5 km/h 13.4 km/h 52% 0.0 mm 56 W/m2
13:11 15.8 °C 6.2 °C 1009.7 hPa NNE 6.1 km/h 11.1 km/h 53% 0.0 mm 57 W/m2
13:16 15.8 °C 5.7 °C 1009.7 hPa NNE 3.5 km/h 11.1 km/h 51% 0.0 mm 58 W/m2
13:21 16.0 °C 5.6 °C 1009.7 hPa North 6.1 km/h 9.7 km/h 50% 0.0 mm 61 W/m2
13:27 16.1 °C 6.2 °C 1009.4 hPa North 6.1 km/h 9.7 km/h 52% 0.0 mm 64 W/m2
13:32 16.4 °C 5.9 °C 1009.7 hPa North 3.5 km/h 9.7 km/h 50% 0.0 mm 66 W/m2
13:37 16.6 °C 5.6 °C 1009.4 hPa NNE 5.0 km/h 8.7 km/h 48% 0.0 mm 70 W/m2
13:42 16.4 °C 5.4 °C 1009.4 hPa North 5.0 km/h 11.1 km/h 48% 0.0 mm 69 W/m2
13:47 16.4 °C 5.4 °C 1009.4 hPa North 3.5 km/h 11.1 km/h 48% 0.0 mm 69 W/m2
13:52 16.9 °C 6.1 °C 1009.4 hPa North 2.6 km/h 8.7 km/h 49% 0.0 mm 71 W/m2
13:57 16.7 °C 5.9 °C 1009.4 hPa NE 3.5 km/h 8.7 km/h 49% 0.0 mm 76 W/m2
14:02 16.4 °C 5.9 °C 1009.4 hPa ENE 6.1 km/h 11.1 km/h 50% 0.0 mm 100 W/m2
14:07 16.5 °C 6.3 °C 1009.4 hPa East 3.5 km/h 11.1 km/h 51% 0.0 mm 148 W/m2
14:12 16.9 °C 7.0 °C 1008.7 hPa ENE 7.2 km/h 8.7 km/h 52% 0.0 mm 202 W/m2
14:17 16.3 °C 6.4 °C 1009.0 hPa ENE 2.6 km/h 11.1 km/h 52% 0.0 mm 235 W/m2
14:22 17.0 °C 6.8 °C 1009.0 hPa ENE 2.6 km/h 11.1 km/h 51% 0.0 mm 233 W/m2
14:27 16.7 °C 6.8 °C 1009.0 hPa East 5.0 km/h 9.7 km/h 52% 0.0 mm 229 W/m2
14:32 16.4 °C 6.8 °C 1009.0 hPa East 2.6 km/h 9.7 km/h 53% 0.0 mm 221 W/m2
14:37 16.4 °C 6.8 °C 1009.0 hPa East 5.0 km/h 8.7 km/h 53% 0.0 mm 214 W/m2
14:42 16.5 °C 7.2 °C 1009.0 hPa ENE 2.6 km/h 8.7 km/h 54% 0.0 mm 209 W/m2
14:47 16.9 °C 8.1 °C 1009.0 hPa East 5.0 km/h 9.7 km/h 56% 0.0 mm 178 W/m2
14:52 16.2 °C 7.4 °C 1008.7 hPa ESE 3.5 km/h 9.7 km/h 56% 0.0 mm 194 W/m2
14:57 16.0 °C 8.0 °C 1008.7 hPa SE 5.0 km/h 9.7 km/h 59% 0.0 mm 185 W/m2
15:02 15.9 °C 7.9 °C 1008.7 hPa ESE 6.1 km/h 9.7 km/h 59% 0.0 mm 181 W/m2
15:07 15.5 °C 7.8 °C 1008.7 hPa ESE 3.5 km/h 9.7 km/h 60% 0.0 mm 156 W/m2
15:12 15.6 °C 7.9 °C 1008.7 hPa ESE 5.0 km/h 9.7 km/h 60% 0.0 mm 168 W/m2
15:17 15.6 °C 7.9 °C 1009.0 hPa ESE 3.5 km/h 7.2 km/h 60% 0.0 mm 173 W/m2
15:22 15.8 °C 8.3 °C 1008.7 hPa ESE 5.0 km/h 7.2 km/h 61% 0.0 mm 159 W/m2
15:27 15.9 °C 8.9 °C 1008.7 hPa ESE 2.6 km/h 8.7 km/h 63% 0.0 mm 144 W/m2
15:32 16.2 °C 8.7 °C 1008.7 hPa ESE 3.5 km/h 8.7 km/h 61% 0.0 mm 119 W/m2
15:37 16.2 °C 8.7 °C 1008.7 hPa SE 2.6 km/h 8.7 km/h 61% 0.0 mm 105 W/m2
15:42 16.3 °C 8.5 °C 1008.7 hPa SE 1.1 km/h 6.1 km/h 60% 0.0 mm 98 W/m2
15:47 16.0 °C 8.5 °C 1008.7 hPa ESE 1.1 km/h 7.2 km/h 61% 0.0 mm 90 W/m2
15:52 15.9 °C 8.9 °C 1008.7 hPa ESE 3.5 km/h 7.2 km/h 63% 0.0 mm 82 W/m2
15:57 15.9 °C 8.9 °C 1008.4 hPa East 2.6 km/h 7.2 km/h 63% 0.0 mm 71 W/m2
16:02 16.0 °C 8.5 °C 1008.4 hPa East 2.6 km/h 6.1 km/h 61% 0.0 mm 61 W/m2
16:07 15.8 °C 8.6 °C 1008.7 hPa East 3.5 km/h 6.1 km/h 62% 0.0 mm 53 W/m2
16:12 15.5 °C 8.3 °C 1008.4 hPa ENE 2.6 km/h 6.1 km/h 62% 0.0 mm 45 W/m2
16:17 15.6 °C 8.6 °C 1008.4 hPa ENE 1.1 km/h 6.1 km/h 63% 0.0 mm 36 W/m2
16:22 15.1 °C 8.1 °C 1008.4 hPa Calm   3.5 km/h 63% 0.0 mm 19 W/m2
16:27 14.1 °C 7.8 °C 1008.7 hPa Calm   3.5 km/h 66% 0.0 mm 16 W/m2
16:32 13.3 °C 7.7 °C 1008.7 hPa Calm   2.6 km/h 69% 0.0 mm 12 W/m2
16:37 12.7 °C 7.8 °C 1008.4 hPa Calm   2.6 km/h 72% 0.0 mm 11 W/m2
16:42 12.8 °C 8.1 °C 1008.4 hPa WNW 1.1 km/h 3.5 km/h 73% 0.0 mm 9 W/m2
16:47 12.7 °C 8.2 °C 1008.4 hPa NNW 1.1 km/h 3.5 km/h 74% 0.0 mm 7 W/m2
16:52 12.4 °C 7.9 °C 1008.4 hPa North 1.1 km/h 2.6 km/h 74% 0.0 mm 3 W/m2
16:57 11.9 °C 7.8 °C 1008.4 hPa North 1.1 km/h 2.6 km/h 76% 0.0 mm 1 W/m2
17:02 11.5 °C 7.6 °C 1008.4 hPa North 1.1 km/h 2.6 km/h 77% 0.0 mm 0 W/m2
17:07 11.2 °C 7.7 °C 1008.4 hPa NNW 2.6 km/h 3.5 km/h 79% 0.0 mm 0 W/m2
17:12 10.9 °C 7.8 °C 1008.7 hPa Calm   3.5 km/h 81% 0.0 mm 0 W/m2
17:17 10.7 °C 7.9 °C 1008.7 hPa NW 1.1 km/h 3.5 km/h 83% 0.0 mm 0 W/m2
17:22 10.6 °C 7.8 °C 1008.7 hPa NNW 1.1 km/h 2.6 km/h 83% 0.0 mm 0 W/m2
17:27 10.5 °C 7.9 °C 1008.4 hPa Calm   2.6 km/h 84% 0.0 mm 0 W/m2
17:32 10.4 °C 8.0 °C 1008.7 hPa NNW 2.6 km/h 3.5 km/h 85% 0.0 mm 0 W/m2
17:37 10.2 °C 7.8 °C 1008.7 hPa NW 3.5 km/h 5.0 km/h 85% 0.0 mm 0 W/m2
17:42 9.9 °C 7.8 °C 1008.4 hPa NW 1.1 km/h 6.1 km/h 87% 0.0 mm 0 W/m2
17:47 9.8 °C 7.9 °C 1008.4 hPa NNW 1.1 km/h 6.1 km/h 88% 0.0 mm 0 W/m2
17:52 9.8 °C 8.1 °C 1008.4 hPa North 2.6 km/h 5.0 km/h 89% 0.0 mm 0 W/m2
17:53 9.8 °C 8.1 °C 1008.7 hPa North 1.1 km/h 5.0 km/h 89% 0.0 mm 0 W/m2
17:58 9.7 °C 8.0 °C 1008.4 hPa NNW 1.1 km/h 5.0 km/h 89% 0.0 mm 0 W/m2
18:03 9.6 °C 7.9 °C 1008.7 hPa Calm   5.0 km/h 89% 0.0 mm 0 W/m2
18:08 9.4 °C 7.7 °C 1008.4 hPa Calm   2.6 km/h 89% 0.0 mm 0 W/m2
18:13 9.3 °C 7.7 °C 1008.7 hPa Calm   2.6 km/h 90% 0.0 mm 0 W/m2
18:18 9.3 °C 7.9 °C 1008.4 hPa SE 1.1 km/h 3.5 km/h 91% 0.0 mm 0 W/m2
18:23 9.4 °C 8.0 °C 1008.7 hPa NW 2.6 km/h 5.0 km/h 91% 0.0 mm 0 W/m2
18:28 9.5 °C 8.1 °C 1009.0 hPa NNW 2.6 km/h 5.0 km/h 91% 0.0 mm 0 W/m2
18:33 9.6 °C 8.2 °C 1008.7 hPa North 1.1 km/h 3.5 km/h 91% 0.0 mm 0 W/m2
18:38 9.6 °C 8.2 °C 1008.7 hPa NNW 2.6 km/h 3.5 km/h 91% 0.0 mm 0 W/m2
18:43 9.6 °C 8.2 °C 1008.7 hPa Calm   3.5 km/h 91% 0.0 mm 0 W/m2
18:48 9.4 °C 7.8 °C 1008.7 hPa Calm   3.5 km/h 90% 0.0 mm 0 W/m2
18:53 9.4 °C 7.8 °C 1008.7 hPa SE 1.1 km/h 2.6 km/h 90% 0.0 mm 0 W/m2
18:58 9.4 °C 7.8 °C 1008.7 hPa Calm   2.6 km/h 90% 0.0 mm 0 W/m2
19:03 9.4 °C 7.8 °C 1008.7 hPa SE 1.1 km/h 2.6 km/h 90% 0.0 mm 0 W/m2
19:08 9.7 °C 8.3 °C 1008.7 hPa NW 5.0 km/h 6.1 km/h 91% 0.0 mm 0 W/m2
19:13 9.6 °C 8.1 °C 1009.0 hPa NW 5.0 km/h 6.1 km/h 90% 0.0 mm 0 W/m2
19:18 9.6 °C 8.1 °C 1008.7 hPa NW 3.5 km/h 7.2 km/h 90% 0.0 mm 0 W/m2
19:23 9.6 °C 8.1 °C 1009.0 hPa NW 3.5 km/h 7.2 km/h 90% 0.0 mm 0 W/m2
19:28 9.5 °C 7.9 °C 1009.0 hPa NW 5.0 km/h 7.2 km/h 90% 0.0 mm 0 W/m2
19:33 9.4 °C 7.8 °C 1009.0 hPa NW 2.6 km/h 7.2 km/h 90% 0.0 mm 0 W/m2
19:38 9.3 °C 7.7 °C 1009.0 hPa NW 2.6 km/h 7.2 km/h 90% 0.0 mm 0 W/m2
19:43 9.2 °C 7.7 °C 1008.7 hPa Calm   6.1 km/h 90% 0.0 mm 0 W/m2
19:48 9.0 °C 7.4 °C 1008.7 hPa NNW 1.1 km/h 3.5 km/h 90% 0.0 mm 0 W/m2
19:53 8.8 °C 7.4 °C 1008.7 hPa Calm   2.6 km/h 91% 0.0 mm 0 W/m2
19:58 8.6 °C 7.2 °C 1008.4 hPa Calm   3.5 km/h 91% 0.0 mm 0 W/m2
20:03 8.5 °C 7.1 °C 1008.7 hPa NW 3.5 km/h 5.0 km/h 91% 0.0 mm 0 W/m2
20:08 8.5 °C 7.3 °C 1008.7 hPa NW 3.5 km/h 6.1 km/h 92% 0.0 mm 0 W/m2
20:13 8.3 °C 7.1 °C 1008.4 hPa NNW 2.6 km/h 6.1 km/h 92% 0.0 mm 0 W/m2
20:18 8.2 °C 7.0 °C 1008.4 hPa NNW 1.1 km/h 5.0 km/h 92% 0.0 mm 0 W/m2
20:23 8.2 °C 7.1 °C 1008.7 hPa NNW 1.1 km/h 3.5 km/h 93% 0.0 mm 0 W/m2
20:28 8.0 °C 6.9 °C 1008.7 hPa NNW 2.6 km/h 3.5 km/h 93% 0.0 mm 0 W/m2
20:33 7.9 °C 6.8 °C 1008.4 hPa Calm   3.5 km/h 93% 0.0 mm 0 W/m2
20:38 7.8 °C 6.9 °C 1008.4 hPa NNW 1.1 km/h 3.5 km/h 94% 0.0 mm 0 W/m2
20:43 7.7 °C 6.8 °C 1008.4 hPa Calm   2.6 km/h 94% 0.0 mm 0 W/m2
20:48 7.6 °C 6.7 °C 1008.7 hPa Calm   2.6 km/h 94% 0.0 mm 0 W/m2
20:53 7.5 °C 6.6 °C 1008.7 hPa NNE 1.1 km/h 2.6 km/h 94% 0.0 mm 0 W/m2
20:58 7.5 °C 6.6 °C 1008.4 hPa Calm   2.6 km/h 94% 0.0 mm 0 W/m2
21:03 7.5 °C 6.6 °C 1008.4 hPa Calm   2.6 km/h 94% 0.0 mm 0 W/m2
21:08 7.4 °C 6.5 °C 1008.4 hPa Calm     94% 0.0 mm 0 W/m2
21:13 7.3 °C 6.4 °C 1008.4 hPa Calm   1.1 km/h 94% 0.0 mm 0 W/m2
21:18 7.3 °C 6.4 °C 1008.4 hPa North 2.6 km/h 2.6 km/h 94% 0.0 mm 0 W/m2
21:23 7.3 °C 6.4 °C 1008.0 hPa NW 2.6 km/h 3.5 km/h 94% 0.0 mm 0 W/m2
21:28 7.4 °C 6.7 °C 1008.0 hPa NW 2.6 km/h 5.0 km/h 95% 0.0 mm 0 W/m2
21:33 7.4 °C 6.7 °C 1008.0 hPa NW 1.1 km/h 5.0 km/h 95% 0.0 mm 0 W/m2
21:38 7.4 °C 6.7 °C 1008.0 hPa NW 3.5 km/h 5.0 km/h 95% 0.0 mm 0 W/m2
21:43 7.4 °C 6.7 °C 1008.0 hPa NW 3.5 km/h 8.7 km/h 95% 0.0 mm 0 W/m2
21:48 7.4 °C 6.7 °C 1007.7 hPa NW 3.5 km/h 8.7 km/h 95% 0.0 mm 0 W/m2
21:51 7.4 °C 6.7 °C 1007.7 hPa NW 2.6 km/h 8.7 km/h 95% 0.0 mm 0 W/m2
21:56 7.4 °C 6.7 °C 1007.7 hPa NW 2.6 km/h 6.1 km/h 95% 0.0 mm 0 W/m2
22:01 7.2 °C 6.4 °C 1007.7 hPa NNE 1.1 km/h 3.5 km/h 95% 0.0 mm 0 W/m2
22:06 7.2 °C 6.3 °C 1007.7 hPa NNE 3.5 km/h 5.0 km/h 94% 0.0 mm 0 W/m2
22:11 7.2 °C 6.4 °C 1007.7 hPa North 3.5 km/h 5.0 km/h 95% 0.0 mm 0 W/m2
22:16 7.0 °C 6.1 °C 1007.7 hPa NNW 5.0 km/h 7.2 km/h 94% 0.0 mm 0 W/m2
22:21 6.9 °C 6.2 °C 1007.7 hPa NW 5.0 km/h 8.7 km/h 95% 0.0 mm 0 W/m2
22:26 6.9 °C 6.2 °C 1007.7 hPa NW 7.2 km/h 11.1 km/h 95% 0.0 mm 0 W/m2
22:31 7.0 °C 6.1 °C 1007.7 hPa NW 6.1 km/h 11.1 km/h 94% 0.0 mm 0 W/m2
22:36 7.0 °C 6.3 °C 1007.7 hPa NNW 3.5 km/h 11.1 km/h 95% 0.0 mm 0 W/m2
22:41 7.1 °C 6.3 °C 1007.7 hPa NNW 3.5 km/h 8.7 km/h 95% 0.0 mm 0 W/m2
22:46 7.1 °C 6.2 °C 1007.7 hPa North 3.5 km/h 7.2 km/h 94% 0.0 mm 0 W/m2
22:51 7.2 °C 6.4 °C 1007.7 hPa North 2.6 km/h 9.7 km/h 95% 0.0 mm 0 W/m2
22:56 7.3 °C 6.6 °C 1007.7 hPa NNW 5.0 km/h 9.7 km/h 95% 0.0 mm 0 W/m2
23:16 7.2 °C 6.3 °C 1007.3 hPa NW 5.0 km/h 7.2 km/h 94% 0.0 mm 0 W/m2
23:21 7.1 °C 6.2 °C 1007.3 hPa NW 5.0 km/h 8.7 km/h 94% 0.0 mm 0 W/m2
23:26 7.0 °C 6.1 °C 1007.3 hPa NNW 5.0 km/h 8.7 km/h 94% 0.0 mm 0 W/m2
23:31 6.9 °C 6.2 °C 1007.0 hPa NW 3.5 km/h 8.7 km/h 95% 0.0 mm 0 W/m2
23:36 6.8 °C 6.1 °C 1007.3 hPa NW 3.5 km/h 8.7 km/h 95% 0.0 mm 0 W/m2
23:41 6.8 °C 6.1 °C 1007.0 hPa NW 1.1 km/h 6.1 km/h 95% 0.0 mm 0 W/m2
23:46 6.7 °C 5.9 °C 1007.0 hPa NNW 1.1 km/h 6.1 km/h 95% 0.0 mm 0 W/m2
23:51 6.6 °C 5.8 °C 1007.0 hPa North 2.6 km/h 5.0 km/h 95% 0.0 mm 0 W/m2
23:56 6.5 °C 5.8 °C 1007.0 hPa North 1.1 km/h 5.0 km/h 95% 0.0 mm 0 W/m2
Northern Hawkes Bay. New Zealand Historic Data
Compliments of Weather Underground - 2 mb